Quick Links (Output Below):   Max & Min Temps   /   Climate Reports   /   Zone Forecasts
River Forecasts   /   Forestry Forecasts   /   Aviation Forecasts   /   Radars   /   Features

Terminal Aerodrome Forecast (Mountain Home)

Pick a Site:
Arkadelphia | El Dorado | Fayetteville | Fort Smith | Harrison | Highfill | Hot Springs | Jonesboro
Little Rock | Monticello | Mountain Home | Pine Bluff | Texarkana
 Forecast 

KBPK 212332Z 2200/2224 17004KT P6SM SCT250
     FM221400 21007KT P6SM SCT250=


 Latest METARs (Observations) 
How to Decode METARs
02Z KBPK 220153Z AUTO 23005KT 10SM CLR 28/19 A3001 RMK AO2 SLP149
         T02830194
         
01Z KBPK 220053Z AUTO 21005KT 9SM CLR 30/19 A2999 RMK AO2 SLP142
         T03000194
         
***** Today's Observations (Above) *****


23Z KBPK 212253Z AUTO 23006KT 9SM CLR 34/17 A2998 RMK AO2 SLP140
         T03390172
         
22Z KBPK 212153Z AUTO 23009G15KT 9SM CLR 35/18 A2999 RMK AO2 SLP144
         T03500178
         
21Z KBPK 212053Z AUTO 19008KT 9SM CLR 35/19 A3000 RMK AO2 SLP145
         T03500189 58018
         
20Z KBPK 211953Z AUTO 20009G17KT 9SM FEW060 35/20 A3002 RMK AO2 SLP151
         T03500200
         
19Z KBPK 211853Z AUTO 23007KT 200V270 8SM CLR 35/20 A3004 RMK AO2
         SLP159 T03500200
         
18Z KBPK 211753Z AUTO 22008KT 8SM CLR 34/21 A3005 RMK AO2 SLP163
         T03440211 10344 20233 58002
         
17Z KBPK 211653Z AUTO 25005KT 8SM FEW041 33/21 A3006 RMK AO2 SLP168
         T03330211
         
16Z KBPK 211553Z AUTO 22007G17KT 8SM CLR 31/22 A3006 RMK AO2 SLP168
         T03110217
         
***** Yesterday's Observations (Above) *****


Back to Main Page
http://www.srh.noaa.gov/lzk/qfcst.php

USA.gov is the U.S. government's official web portal to all federal, state and local government web resources and services.